Koosah.INFO

KSEA Weather Observatons

This table shows observations taken by aircraft in the Seattle, WA, US area since 2019-08-24T15:07:21-0700. By default, it is sorted by time observed in ascending order. Click on a column heading to sort by that column instead. Click again on the same column heading to sort in descending order.

Show observations taken in the last:

Return to main page.

Time Observed Time Received Altitude (ft) Latitude Longitude Temperature (˚C) Wind Direction Wind speed (kn) Frequency (MHz) Source
2019-08-24T16:47:00-0700 2019-08-24T16:48:21-0700 29686 46.223 -123.1244 -31.7 289 86 130.025 .N303AS
2019-08-24T16:59:00-0700 2019-08-24T17:00:13-0700 12143 47.4834 -122.7071 1.0 291 28 130.025 .N309AS
2019-08-24T16:59:00-0700 2019-08-24T17:00:13-0700 11559 47.4605 -122.6778 2.2 286 25 130.025 .N309AS
2019-08-24T16:59:00-0700 2019-08-24T17:00:13-0700 11043 47.4387 -122.6498 2.7 287 24 130.025 .N309AS
2019-08-24T16:57:00-0700 2019-08-24T16:58:25-0700 6931 47.3244 -122.4918 7.0 (missing) (missing) 130.025 .N309AS
2019-08-24T16:56:00-0700 2019-08-24T16:58:25-0700 6831 47.3129 -122.4591 6.2 262 9 130.025 .N309AS
2019-08-24T16:56:00-0700 2019-08-24T16:58:25-0700 6428 47.3085 -122.4235 6.0 235 10 130.025 .N309AS
2019-08-24T16:55:00-0700 2019-08-24T16:56:42-0700 3868 47.332 -122.3228 12.0 (missing) (missing) 130.025 .N309AS
2019-08-24T16:55:00-0700 2019-08-24T16:56:42-0700 3276 47.3529 -122.3121 12.7 253 14 130.025 .N309AS
2019-08-24T16:54:00-0700 2019-08-24T16:56:42-0700 2696 47.3742 -122.3121 14.5 250 13 130.025 .N309AS
2019-08-24T16:47:00-0700 2019-08-24T16:48:21-0700 30630 46.1293 -123.1141 -34.0 291 87 130.025 .N303AS
2019-08-24T16:47:00-0700 2019-08-24T16:48:21-0700 30144 46.1762 -123.1193 -32.7 289 86 130.025 .N303AS
2019-08-24T15:10:00-0700 2019-08-24T15:14:38-0700 27907 46.2898 -122.7164 -28.5 288 91 130.025 .N317AS
2019-08-24T16:46:00-0700 2019-08-24T16:46:27-0700 28434 46.3705 -123.1402 -28.2 288 87 130.025 .N303AS
2019-08-24T16:45:00-0700 2019-08-24T16:46:27-0700 28015 46.4168 -123.1452 -26.7 288 89 130.025 .N303AS
2019-08-24T16:45:00-0700 2019-08-24T16:46:27-0700 27469 46.4632 -123.1502 -25.2 286 88 130.025 .N303AS
2019-08-24T16:31:00-0700 2019-08-24T16:31:58-0700 30207 45.883 -121.0895 -33.5 293 100 130.025 .N306AS
2019-08-24T16:31:00-0700 2019-08-24T16:31:58-0700 29878 45.9252 -121.124 -32.7 291 94 130.025 .N306AS
2019-08-24T16:31:00-0700 2019-08-24T16:31:58-0700 29511 45.9673 -121.1585 -31.7 290 94 130.025 .N306AS
2019-08-24T16:13:00-0700 2019-08-24T16:13:57-0700 19880 46.651 -122.7212 -11.2 289 56 130.025 .N524AS
2019-08-24T16:11:00-0700 2019-08-24T16:13:57-0700 23994 46.4479 -122.727 -18.2 284 71 130.025 .N524AS
2019-08-24T16:09:00-0700 2019-08-24T16:13:57-0700 28136 46.2431 -122.7068 -28.0 286 92 130.025 .N524AS
2019-08-24T15:14:00-0700 2019-08-24T15:14:38-0700 18891 46.7088 -122.7365 -10.0 289 49 130.025 .N317AS
2019-08-24T15:12:00-0700 2019-08-24T15:14:38-0700 23241 46.5006 -122.7287 -17.7 277 76 130.025 .N317AS